createdAt,value
2018-01-21T00:00:03.368Z,975.47
2018-01-21T00:01:03.359Z,975.53
2018-01-21T00:02:03.361Z,975.53
2018-01-21T00:03:03.343Z,975.6
2018-01-21T00:04:03.338Z,975.63
2018-01-21T00:05:03.321Z,975.66
2018-01-21T00:06:03.315Z,975.7
2018-01-21T00:07:03.305Z,975.66
2018-01-21T00:08:03.307Z,975.76
2018-01-21T00:09:03.286Z,975.76
2018-01-21T00:10:03.315Z,975.75
2018-01-21T00:11:03.270Z,975.81
2018-01-21T00:12:03.263Z,975.83
2018-01-21T00:13:03.254Z,975.85
2018-01-21T00:14:03.246Z,975.91
2018-01-21T00:15:03.234Z,975.86
2018-01-21T00:16:03.224Z,975.91
2018-01-21T00:17:03.215Z,975.94
2018-01-21T00:18:03.215Z,975.95
2018-01-21T00:19:03.197Z,975.93
2018-01-21T00:20:03.193Z,975.93
2018-01-21T00:21:03.178Z,976.04
2018-01-21T00:22:03.172Z,976.03
2018-01-21T00:23:03.160Z,976.08
2018-01-21T00:24:03.152Z,976.14
2018-01-21T00:25:03.145Z,976.17
2018-01-21T00:26:03.134Z,976.19
2018-01-21T00:27:03.125Z,976.22
2018-01-21T00:28:03.116Z,976.19
2018-01-21T00:29:03.108Z,976.25
2018-01-21T00:30:03.104Z,976.34
2018-01-21T00:31:03.089Z,976.41
2018-01-21T00:32:03.087Z,976.44
2018-01-21T00:33:03.072Z,976.42
2018-01-21T00:34:03.063Z,976.49
2018-01-21T00:35:03.057Z,976.48
2018-01-21T00:36:03.046Z,976.51
2018-01-21T00:37:03.040Z,976.55
2018-01-21T00:38:03.027Z,976.56
2018-01-21T00:39:03.018Z,976.54
2018-01-21T00:40:03.016Z,976.62
2018-01-21T00:41:03.000Z,976.62
2018-01-21T00:42:02.996Z,976.67
2018-01-21T00:43:02.986Z,976.64
2018-01-21T00:44:02.973Z,976.72
2018-01-21T00:45:02.971Z,976.73
2018-01-21T00:46:02.955Z,976.7
2018-01-21T00:47:02.947Z,976.75
2018-01-21T00:48:02.939Z,976.72
2018-01-21T00:49:02.932Z,976.72
2018-01-21T00:50:02.920Z,976.79
2018-01-21T00:51:02.910Z,976.8
2018-01-21T00:52:02.901Z,976.81
2018-01-21T00:53:02.892Z,976.85
2018-01-21T00:54:02.882Z,976.84
2018-01-21T00:55:02.876Z,976.87
2018-01-21T00:56:02.867Z,976.91
2018-01-21T00:57:02.857Z,976.88
2018-01-21T00:58:02.847Z,976.96
2018-01-21T00:59:02.841Z,976.93
2018-01-21T01:00:02.829Z,976.93
2018-01-21T01:01:02.820Z,976.96
2018-01-21T01:02:02.812Z,976.97
2018-01-21T01:03:02.803Z,976.94
2018-01-21T01:04:02.793Z,977.03
2018-01-21T01:05:02.784Z,977.1
2018-01-21T01:06:02.775Z,977.13
2018-01-21T01:07:02.766Z,977.23
2018-01-21T01:08:02.760Z,977.28
2018-01-21T01:09:02.750Z,977.32
2018-01-21T01:10:02.742Z,977.39
2018-01-21T01:11:02.735Z,977.42
2018-01-21T01:12:02.779Z,977.47
2018-01-21T01:13:02.716Z,977.53
2018-01-21T01:14:02.705Z,977.57
2018-01-21T01:15:02.702Z,977.61
2018-01-21T01:16:02.690Z,977.63
2018-01-21T01:17:02.678Z,977.66
2018-01-21T01:18:02.668Z,977.63
2018-01-21T01:19:02.660Z,977.67
2018-01-21T01:20:02.651Z,977.68
2018-01-21T01:21:02.648Z,977.69
2018-01-21T01:22:02.651Z,977.68
2018-01-21T01:23:02.623Z,977.72
2018-01-21T01:24:02.617Z,977.81
2018-01-21T01:25:02.607Z,977.87
2018-01-21T01:26:02.597Z,977.88
2018-01-21T01:27:02.590Z,977.88
2018-01-21T01:28:02.580Z,977.94
2018-01-21T01:29:02.574Z,977.96
2018-01-21T01:30:02.565Z,977.98
2018-01-21T01:31:02.552Z,977.94
2018-01-21T01:32:02.546Z,978.08
2018-01-21T01:33:02.532Z,978.1
2018-01-21T01:34:02.526Z,978.13
2018-01-21T01:35:02.516Z,978.14
2018-01-21T01:36:02.511Z,978.19
2018-01-21T01:37:02.524Z,978.22
2018-01-21T01:38:02.494Z,978.28
2018-01-21T01:39:02.479Z,978.28
2018-01-21T01:40:02.472Z,978.3
2018-01-21T01:41:02.464Z,978.34
2018-01-21T01:42:02.452Z,978.38
2018-01-21T01:43:02.448Z,978.4
2018-01-21T01:44:02.433Z,978.43
2018-01-21T01:45:02.424Z,978.49
2018-01-21T01:46:02.415Z,978.54
2018-01-21T01:47:02.408Z,978.58
2018-01-21T01:48:02.397Z,978.59
2018-01-21T01:49:02.388Z,978.54
2018-01-21T01:50:02.379Z,978.62
2018-01-21T01:51:02.370Z,978.61
2018-01-21T01:52:02.366Z,978.65
2018-01-21T01:53:02.352Z,978.65
2018-01-21T01:54:02.342Z,978.64
2018-01-21T01:55:02.334Z,978.69
2018-01-21T01:56:02.325Z,978.75
2018-01-21T01:57:02.320Z,978.75
2018-01-21T01:58:02.307Z,978.83
2018-01-21T01:59:02.297Z,978.81
2018-01-21T02:00:02.288Z,978.78
2018-01-21T02:01:02.279Z,978.78
2018-01-21T02:02:02.267Z,978.83
2018-01-21T02:03:02.260Z,978.86
2018-01-21T02:04:02.251Z,978.85
2018-01-21T02:05:02.242Z,978.93
2018-01-21T02:06:02.232Z,978.93
2018-01-21T02:07:02.230Z,978.89
2018-01-21T02:08:02.219Z,978.91
2018-01-21T02:09:02.216Z,978.93
2018-01-21T02:10:02.196Z,978.9
2018-01-21T02:11:02.189Z,978.97
2018-01-21T02:12:02.178Z,979.02
2018-01-21T02:13:02.171Z,979.04
2018-01-21T02:14:02.164Z,979.07
2018-01-21T02:15:02.160Z,979.04
2018-01-21T02:16:02.143Z,979.07
2018-01-21T02:17:02.132Z,979.03
2018-01-21T02:18:02.124Z,979.05
2018-01-21T02:19:02.119Z,979.06
2018-01-21T02:20:02.106Z,979.13
2018-01-21T02:21:02.097Z,979.1
2018-01-21T02:22:02.088Z,979.18
2018-01-21T02:23:02.080Z,979.19
2018-01-21T02:24:02.073Z,979.19
2018-01-21T02:25:02.060Z,979.19
2018-01-21T02:26:02.052Z,979.24
2018-01-21T02:27:02.051Z,979.32
2018-01-21T02:28:02.033Z,979.31
2018-01-21T02:29:02.025Z,979.3
2018-01-21T02:30:02.017Z,979.38
2018-01-21T02:31:02.012Z,979.4
2018-01-21T02:32:01.996Z,979.41
2018-01-21T02:33:01.991Z,979.42
2018-01-21T02:34:01.979Z,979.45
2018-01-21T02:35:01.968Z,979.43
2018-01-21T02:36:01.960Z,979.48
2018-01-21T02:37:01.951Z,979.5
2018-01-21T02:38:01.942Z,979.45
2018-01-21T02:39:01.932Z,979.52
2018-01-21T02:40:01.927Z,979.49
2018-01-21T02:41:01.915Z,979.54
2018-01-21T02:42:01.905Z,979.56
2018-01-21T02:43:01.900Z,979.61
2018-01-21T02:44:01.890Z,979.59
2018-01-21T02:45:01.878Z,979.67
2018-01-21T02:46:01.868Z,979.63
2018-01-21T02:47:01.858Z,979.6
2018-01-21T02:48:01.852Z,979.74
2018-01-21T02:49:01.841Z,979.67
2018-01-21T02:50:01.831Z,979.7
2018-01-21T02:51:01.821Z,979.7
2018-01-21T02:52:01.814Z,979.77
2018-01-21T02:53:01.805Z,979.74
2018-01-21T02:54:01.803Z,979.77
2018-01-21T02:55:01.788Z,979.82
2018-01-21T02:56:01.776Z,979.81
2018-01-21T02:57:01.766Z,979.85
2018-01-21T02:58:01.765Z,979.88
2018-01-21T02:59:01.748Z,979.95
2018-01-21T03:00:01.739Z,979.94
2018-01-21T03:01:01.729Z,979.94
2018-01-21T03:02:01.720Z,979.99
2018-01-21T03:03:01.711Z,980.03
2018-01-21T03:04:01.708Z,980.04
2018-01-21T03:05:01.697Z,980.08
2018-01-21T03:06:01.683Z,980.14
2018-01-21T03:07:01.676Z,980.17
2018-01-21T03:08:01.665Z,980.17
2018-01-21T03:09:01.654Z,980.15
2018-01-21T03:10:01.647Z,980.2
2018-01-21T03:11:01.638Z,980.3
2018-01-21T03:12:01.628Z,980.27
2018-01-21T03:13:01.621Z,980.33
2018-01-21T03:14:01.610Z,980.33
2018-01-21T03:15:01.602Z,980.39
2018-01-21T03:16:01.593Z,980.43
2018-01-21T03:17:01.581Z,980.39
2018-01-21T03:18:01.573Z,980.45
2018-01-21T03:19:01.563Z,980.48
2018-01-21T03:20:01.554Z,980.5
2018-01-21T03:21:01.545Z,980.54
2018-01-21T03:22:01.536Z,980.56
2018-01-21T03:23:01.527Z,980.58
2018-01-21T03:24:01.521Z,980.59
2018-01-21T03:25:01.509Z,980.61
2018-01-21T03:26:01.498Z,980.63
2018-01-21T03:27:01.489Z,980.68
2018-01-21T03:28:01.478Z,980.69
2018-01-21T03:29:01.472Z,980.7
2018-01-21T03:30:01.460Z,980.76
2018-01-21T03:31:01.454Z,980.76
2018-01-21T03:32:01.441Z,980.77
2018-01-21T03:33:01.433Z,980.79
2018-01-21T03:34:01.423Z,980.75
2018-01-21T03:35:01.413Z,980.8
2018-01-21T03:36:01.404Z,980.82
2018-01-21T03:37:01.397Z,980.83
2018-01-21T03:38:01.399Z,980.79
2018-01-21T03:39:01.375Z,980.85
2018-01-21T03:40:01.368Z,980.85
2018-01-21T03:41:01.364Z,980.91
2018-01-21T03:42:01.347Z,980.89
2018-01-21T03:43:01.338Z,980.88
2018-01-21T03:44:01.329Z,980.9
2018-01-21T03:45:01.322Z,980.92
2018-01-21T03:46:01.310Z,980.92
2018-01-21T03:47:01.301Z,981.02
2018-01-21T03:48:01.294Z,980.97
2018-01-21T03:49:01.286Z,981.06
2018-01-21T03:50:01.273Z,981.04
2018-01-21T03:51:01.265Z,981.08
2018-01-21T03:52:01.254Z,981.15
2018-01-21T03:53:01.245Z,981.18
2018-01-21T03:54:01.234Z,981.2
2018-01-21T03:55:01.236Z,981.24
2018-01-21T03:56:01.216Z,981.28
2018-01-21T03:57:01.207Z,981.38
2018-01-21T03:58:01.199Z,981.39
2018-01-21T03:59:01.194Z,981.39
2018-01-21T04:00:01.179Z,981.41
2018-01-21T04:01:01.169Z,981.42
2018-01-21T04:02:01.160Z,981.48
2018-01-21T04:03:01.149Z,981.51
2018-01-21T04:04:01.141Z,981.59
2018-01-21T04:05:01.132Z,981.6
2018-01-21T04:06:01.127Z,981.61
2018-01-21T04:07:01.112Z,981.66
2018-01-21T04:08:01.103Z,981.7
2018-01-21T04:09:01.093Z,981.74
2018-01-21T04:10:01.085Z,981.71
2018-01-21T04:11:01.075Z,981.74
2018-01-21T04:12:01.065Z,981.79
2018-01-21T04:13:01.057Z,981.7
2018-01-21T04:14:01.056Z,981.75
2018-01-21T04:15:01.037Z,981.75
2018-01-21T04:16:01.030Z,981.73
2018-01-21T04:17:01.019Z,981.79
2018-01-21T04:18:01.011Z,981.79
2018-01-21T04:19:01.003Z,981.8
2018-01-21T04:20:01.008Z,981.77
2018-01-21T04:21:01.004Z,981.83
2018-01-21T04:22:00.972Z,981.89
2018-01-21T04:23:00.967Z,981.88
2018-01-21T04:24:00.969Z,981.9
2018-01-21T04:25:00.959Z,982.01
2018-01-21T04:26:00.956Z,981.97
2018-01-21T04:27:00.927Z,982.02
2018-01-21T04:28:00.945Z,982.07
2018-01-21T04:29:01.121Z,982.11
2018-01-21T04:30:00.903Z,982.11
2018-01-21T04:31:00.892Z,982.11
2018-01-21T04:32:00.887Z,982.18
2018-01-21T04:33:00.878Z,982.18
2018-01-21T04:34:00.865Z,982.25
2018-01-21T04:35:00.854Z,982.3
2018-01-21T04:36:00.844Z,982.33
2018-01-21T04:37:00.836Z,982.43
2018-01-21T04:38:00.832Z,982.4
2018-01-21T04:39:00.830Z,982.45
2018-01-21T04:40:00.807Z,982.47
2018-01-21T04:41:00.801Z,982.52
2018-01-21T04:42:00.790Z,982.49
2018-01-21T04:43:00.784Z,982.51
2018-01-21T04:44:00.771Z,982.57
2018-01-21T04:45:00.769Z,982.56
2018-01-21T04:46:00.752Z,982.62
2018-01-21T04:47:00.786Z,982.58
2018-01-21T04:48:00.739Z,982.59
2018-01-21T04:49:00.724Z,982.58
2018-01-21T04:50:00.713Z,982.63
2018-01-21T04:51:00.703Z,982.73
2018-01-21T04:52:00.696Z,982.68
2018-01-21T04:53:00.693Z,982.81
2018-01-21T04:54:00.676Z,982.76
2018-01-21T04:55:00.666Z,982.78
2018-01-21T04:56:00.659Z,982.8
2018-01-21T04:57:00.649Z,982.86
2018-01-21T04:58:00.639Z,982.85
2018-01-21T04:59:00.630Z,982.84
2018-01-21T05:00:00.620Z,982.96
2018-01-21T05:01:00.610Z,982.92
2018-01-21T05:02:00.601Z,982.99
2018-01-21T05:03:00.592Z,982.96
2018-01-21T05:04:00.587Z,982.98
2018-01-21T05:05:00.573Z,982.98
2018-01-21T05:06:00.565Z,983
2018-01-21T05:07:00.555Z,983.06
2018-01-21T05:08:00.546Z,983.06
2018-01-21T05:09:00.537Z,983.07
2018-01-21T05:10:00.527Z,983.09
2018-01-21T05:11:00.519Z,983.17
2018-01-21T05:12:00.509Z,983.16
2018-01-21T05:13:00.498Z,983.16
2018-01-21T05:14:00.490Z,983.19
2018-01-21T05:15:00.486Z,983.22
2018-01-21T05:16:00.479Z,983.29
2018-01-21T05:17:00.467Z,983.32
2018-01-21T05:18:00.475Z,983.22
2018-01-21T05:19:00.477Z,983.29
2018-01-21T05:20:00.496Z,983.31
2018-01-21T05:21:00.426Z,983.28
2018-01-21T05:22:00.417Z,983.29
2018-01-21T05:23:00.406Z,983.36
2018-01-21T05:24:00.398Z,983.35
2018-01-21T05:25:00.389Z,983.41
2018-01-21T05:26:00.386Z,983.42
2018-01-21T05:27:00.371Z,983.42
2018-01-21T05:28:00.362Z,983.43
2018-01-21T05:29:00.354Z,983.44
2018-01-21T05:30:00.349Z,983.47
2018-01-21T05:31:00.333Z,983.48
2018-01-21T05:32:00.326Z,983.51
2018-01-21T05:33:00.315Z,983.52
2018-01-21T05:34:00.305Z,983.54
2018-01-21T05:35:00.297Z,983.57
2018-01-21T05:36:00.287Z,983.63
2018-01-21T05:37:00.279Z,983.63
2018-01-21T05:38:00.269Z,983.61
2018-01-21T05:39:00.260Z,983.66
2018-01-21T05:40:00.251Z,983.7
2018-01-21T05:41:00.256Z,983.72
2018-01-21T05:42:00.232Z,983.73
2018-01-21T05:43:00.224Z,983.76
2018-01-21T05:44:00.215Z,983.79
2018-01-21T05:45:00.205Z,983.79
2018-01-21T05:46:00.195Z,983.81
2018-01-21T05:47:00.186Z,983.86
2018-01-21T05:48:00.178Z,983.87
2018-01-21T05:49:00.168Z,983.86
2018-01-21T05:50:00.162Z,983.85
2018-01-21T05:51:00.150Z,983.84
2018-01-21T05:52:00.141Z,983.88
2018-01-21T05:53:00.132Z,983.86
2018-01-21T05:54:00.125Z,983.89
2018-01-21T05:55:00.119Z,983.9
2018-01-21T05:56:00.155Z,983.96
2018-01-21T05:57:00.095Z,983.96
2018-01-21T05:58:00.087Z,984.01
2018-01-21T05:59:00.078Z,984.05
2018-01-21T06:00:00.074Z,984.07
2018-01-21T06:01:00.070Z,984.05
2018-01-21T06:02:00.056Z,984.1
2018-01-21T06:03:00.040Z,984.08
2018-01-21T06:04:00.035Z,984.14
2018-01-21T06:05:00.029Z,984.12
2018-01-21T06:06:00.016Z,984.14
2018-01-21T06:07:00.003Z,984.17
2018-01-21T06:07:59.996Z,984.22
2018-01-21T06:08:59.987Z,984.23
2018-01-21T06:09:59.977Z,984.25
2018-01-21T06:11:00.006Z,984.29
2018-01-21T06:11:59.956Z,984.27
2018-01-21T06:12:59.965Z,984.33
2018-01-21T06:13:59.937Z,984.34
2018-01-21T06:14:59.932Z,984.36
2018-01-21T06:15:59.919Z,984.41
2018-01-21T06:16:59.912Z,984.41
2018-01-21T06:17:59.902Z,984.42
2018-01-21T06:18:59.893Z,984.44
2018-01-21T06:19:59.898Z,984.43
2018-01-21T06:20:59.873Z,984.5
2018-01-21T06:21:59.867Z,984.54
2018-01-21T06:22:59.856Z,984.53
2018-01-21T06:23:59.845Z,984.53
2018-01-21T06:24:59.838Z,984.53
2018-01-21T06:25:59.830Z,984.66
2018-01-21T06:26:59.818Z,984.63
2018-01-21T06:27:59.809Z,984.65
2018-01-21T06:28:59.804Z,984.59
2018-01-21T06:29:59.788Z,984.68
2018-01-21T06:30:59.784Z,984.74
2018-01-21T06:31:59.772Z,984.73
2018-01-21T06:32:59.763Z,984.73
2018-01-21T06:33:59.753Z,984.88
2018-01-21T06:34:59.749Z,984.91
2018-01-21T06:35:59.739Z,984.91
2018-01-21T06:36:59.727Z,984.96
2018-01-21T06:37:59.716Z,984.99
2018-01-21T06:38:59.707Z,985.06
2018-01-21T06:39:59.698Z,985.1
2018-01-21T06:40:59.706Z,985.09
2018-01-21T06:41:59.680Z,985.11
2018-01-21T06:42:59.669Z,985.12
2018-01-21T06:43:59.661Z,985.13
2018-01-21T06:44:59.656Z,985.2
2018-01-21T06:45:59.645Z,985.29
2018-01-21T06:46:59.632Z,985.25
2018-01-21T06:47:59.626Z,985.28
2018-01-21T06:48:59.615Z,985.22
2018-01-21T06:49:59.606Z,985.33
2018-01-21T06:50:59.597Z,985.37
2018-01-21T06:51:59.587Z,985.41
2018-01-21T06:52:59.579Z,985.44
2018-01-21T06:53:59.577Z,985.44
2018-01-21T06:54:59.572Z,985.41
2018-01-21T06:55:59.550Z,985.47
2018-01-21T06:56:59.546Z,985.54
2018-01-21T06:57:59.543Z,985.52
2018-01-21T06:58:59.523Z,985.52
2018-01-21T06:59:59.513Z,985.59
2018-01-21T07:00:59.504Z,985.54
2018-01-21T07:01:59.495Z,985.59
2018-01-21T07:02:59.490Z,985.66
2018-01-21T07:03:59.475Z,985.71
2018-01-21T07:04:59.466Z,985.72
2018-01-21T07:05:59.457Z,985.67
2018-01-21T07:06:59.449Z,985.73
2018-01-21T07:07:59.440Z,985.79
2018-01-21T07:08:59.433Z,985.81
2018-01-21T07:09:59.420Z,985.83
2018-01-21T07:10:59.414Z,985.83
2018-01-21T07:11:59.403Z,985.86
2018-01-21T07:12:59.395Z,985.86
2018-01-21T07:13:59.385Z,985.84
2018-01-21T07:14:59.374Z,985.86
2018-01-21T07:15:59.369Z,985.92
2018-01-21T07:16:59.355Z,985.94
2018-01-21T07:17:59.348Z,985.95
2018-01-21T07:18:59.338Z,985.93
2018-01-21T07:19:59.330Z,985.97
2018-01-21T07:20:59.320Z,985.93
2018-01-21T07:21:59.310Z,985.95
2018-01-21T07:22:59.305Z,985.97
2018-01-21T07:23:59.292Z,986.06
2018-01-21T07:24:59.291Z,986.09
2018-01-21T07:25:59.277Z,986.04
2018-01-21T07:26:59.266Z,986.03
2018-01-21T07:27:59.260Z,986.04
2018-01-21T07:28:59.249Z,986.14
2018-01-21T07:29:59.239Z,986.18
2018-01-21T07:30:59.234Z,986.18
2018-01-21T07:31:59.221Z,986.17
2018-01-21T07:32:59.212Z,986.26
2018-01-21T07:33:59.203Z,986.35
2018-01-21T07:34:59.193Z,986.37
2018-01-21T07:35:59.188Z,986.36
2018-01-21T07:36:59.175Z,986.38
2018-01-21T07:37:59.175Z,986.42
2018-01-21T07:38:59.165Z,986.44
2018-01-21T07:39:59.147Z,986.51
2018-01-21T07:40:59.138Z,986.55
2018-01-21T07:41:59.127Z,986.57
2018-01-21T07:42:59.120Z,986.58
2018-01-21T07:43:59.111Z,986.62
2018-01-21T07:44:59.109Z,986.62
2018-01-21T07:45:59.090Z,986.71
2018-01-21T07:46:59.081Z,986.72
2018-01-21T07:47:59.073Z,986.81
2018-01-21T07:48:59.062Z,986.8
2018-01-21T07:49:59.053Z,986.87
2018-01-21T07:50:59.044Z,986.87
2018-01-21T07:51:59.035Z,986.89
2018-01-21T07:52:59.025Z,986.91
2018-01-21T07:53:59.016Z,986.94
2018-01-21T07:54:59.008Z,986.93
2018-01-21T07:55:58.998Z,986.94
2018-01-21T07:56:58.994Z,987.02
2018-01-21T07:57:58.981Z,987.05
2018-01-21T07:58:58.970Z,987.11
2018-01-21T07:59:58.962Z,987.15
2018-01-21T08:00:58.952Z,987.18
2018-01-21T08:01:58.948Z,987.17
2018-01-21T08:02:58.934Z,987.25
2018-01-21T08:03:58.926Z,987.28
2018-01-21T08:04:58.930Z,987.31
2018-01-21T08:05:58.907Z,987.28
2018-01-21T08:06:58.898Z,987.33
2018-01-21T08:07:58.895Z,987.38
2018-01-21T08:08:58.887Z,987.4
2018-01-21T08:09:58.872Z,987.38
2018-01-21T08:10:58.862Z,987.5
2018-01-21T08:11:58.856Z,987.55
2018-01-21T08:12:58.851Z,987.54
2018-01-21T08:13:58.835Z,987.58
2018-01-21T08:14:58.825Z,987.61
2018-01-21T08:15:58.816Z,987.72
2018-01-21T08:16:58.816Z,987.65
2018-01-21T08:17:58.798Z,987.65
2018-01-21T08:18:58.788Z,987.66
2018-01-21T08:19:58.779Z,987.62
2018-01-21T08:20:58.770Z,987.69
2018-01-21T08:21:58.762Z,987.69
2018-01-21T08:22:58.752Z,987.81
2018-01-21T08:23:58.745Z,987.81
2018-01-21T08:24:58.733Z,987.82
2018-01-21T08:25:58.724Z,987.79
2018-01-21T08:26:58.716Z,987.86
2018-01-21T08:27:58.706Z,987.87
2018-01-21T08:28:58.698Z,987.86
2018-01-21T08:29:58.688Z,987.88
2018-01-21T08:30:58.680Z,987.92
2018-01-21T08:31:58.671Z,987.93
2018-01-21T08:32:58.661Z,987.97
2018-01-21T08:33:58.651Z,987.95
2018-01-21T08:34:58.643Z,987.99
2018-01-21T08:35:58.635Z,987.96
2018-01-21T08:36:58.623Z,988
2018-01-21T08:37:58.616Z,988.08
2018-01-21T08:38:58.615Z,988.05
2018-01-21T08:39:58.615Z,988.04
2018-01-21T08:40:58.588Z,988.06
2018-01-21T08:41:58.581Z,988.1
2018-01-21T08:42:58.571Z,988.16
2018-01-21T08:43:58.560Z,988.15
2018-01-21T08:44:58.559Z,988.2
2018-01-21T08:45:58.563Z,988.22
2018-01-21T08:46:58.535Z,988.21
2018-01-21T08:47:58.524Z,988.28
2018-01-21T08:48:58.516Z,988.32
2018-01-21T08:49:58.507Z,988.26
2018-01-21T08:50:58.499Z,988.31
2018-01-21T08:51:58.489Z,988.37
2018-01-21T08:52:58.482Z,988.36
2018-01-21T08:53:58.471Z,988.34
2018-01-21T08:54:58.471Z,988.41
2018-01-21T08:55:58.645Z,988.44
2018-01-21T08:56:58.446Z,988.4
2018-01-21T08:57:58.437Z,988.44
2018-01-21T08:58:58.427Z,988.44
2018-01-21T08:59:58.419Z,988.5
2018-01-21T09:00:58.412Z,988.49
2018-01-21T09:01:58.402Z,988.47
2018-01-21T09:02:58.394Z,988.57
2018-01-21T09:03:58.384Z,988.63
2018-01-21T09:04:58.375Z,988.59
2018-01-21T09:05:58.368Z,988.68
2018-01-21T09:06:58.361Z,988.69
2018-01-21T09:07:58.353Z,988.67
2018-01-21T09:08:58.340Z,988.67
2018-01-21T09:09:58.332Z,988.71
2018-01-21T09:10:58.327Z,988.7
2018-01-21T09:11:58.320Z,988.78
2018-01-21T09:12:58.304Z,988.81
2018-01-21T09:13:58.296Z,988.76
2018-01-21T09:14:58.290Z,988.87
2018-01-21T09:15:58.282Z,988.84
2018-01-21T09:16:58.270Z,988.91
2018-01-21T09:17:58.262Z,988.92
2018-01-21T09:18:58.253Z,988.91
2018-01-21T09:19:58.252Z,988.9
2018-01-21T09:20:58.236Z,988.93
2018-01-21T09:21:58.239Z,988.88
2018-01-21T09:22:58.220Z,988.91
2018-01-21T09:23:58.213Z,989.01
2018-01-21T09:24:58.202Z,988.96
2018-01-21T09:25:58.194Z,988.95
2018-01-21T09:26:58.190Z,989.03
2018-01-21T09:27:58.182Z,989.04
2018-01-21T09:28:58.181Z,989.09
2018-01-21T09:29:58.165Z,989.05
2018-01-21T09:30:58.158Z,989.08
2018-01-21T09:31:58.158Z,989.08
2018-01-21T09:32:58.136Z,989.1
2018-01-21T09:33:58.140Z,989.16
2018-01-21T09:34:58.134Z,989.16
2018-01-21T09:35:58.117Z,989.29
2018-01-21T09:36:58.114Z,989.23
2018-01-21T09:37:58.103Z,989.3
2018-01-21T09:38:58.098Z,989.28
2018-01-21T09:39:58.092Z,989.28
2018-01-21T09:40:58.080Z,989.35
2018-01-21T09:41:58.063Z,989.36
2018-01-21T09:42:58.055Z,989.45
2018-01-21T09:43:58.055Z,989.37
2018-01-21T09:44:58.033Z,989.47
2018-01-21T09:45:58.042Z,989.49
2018-01-21T09:46:58.019Z,989.48
2018-01-21T09:47:58.010Z,989.54
2018-01-21T09:48:58.000Z,989.53
2018-01-21T09:49:57.991Z,989.52
2018-01-21T09:50:57.982Z,989.58
2018-01-21T09:51:57.978Z,989.65
2018-01-21T09:52:57.982Z,989.66
2018-01-21T09:53:57.960Z,989.72
2018-01-21T09:54:57.956Z,989.72
2018-01-21T09:55:57.941Z,989.82
2018-01-21T09:56:57.934Z,989.69
2018-01-21T09:57:57.930Z,989.71
2018-01-21T09:58:57.919Z,989.71
2018-01-21T09:59:57.915Z,989.74
2018-01-21T10:00:57.899Z,989.84
2018-01-21T10:01:57.889Z,989.82
2018-01-21T10:02:57.886Z,989.78
2018-01-21T10:03:57.875Z,989.76
2018-01-21T10:04:57.864Z,989.77
2018-01-21T10:05:57.855Z,989.72
2018-01-21T10:06:57.849Z,989.75
2018-01-21T10:07:57.838Z,989.75
2018-01-21T10:08:57.830Z,989.8
2018-01-21T10:09:57.825Z,989.74
2018-01-21T10:10:57.819Z,989.81
2018-01-21T10:11:57.808Z,989.84
2018-01-21T10:12:57.802Z,989.82
2018-01-21T10:13:57.791Z,989.78
2018-01-21T10:14:57.780Z,989.84
2018-01-21T10:15:57.770Z,989.79
2018-01-21T10:16:57.846Z,989.81
2018-01-21T10:17:58.237Z,989.88
2018-01-21T10:18:57.968Z,989.86
2018-01-21T10:19:57.934Z,989.8
2018-01-21T10:20:57.937Z,989.79
2018-01-21T10:21:57.937Z,989.84
2018-01-21T10:22:58.060Z,989.88
2018-01-21T10:52:51.322Z,990.14
2018-01-21T10:53:51.057Z,990.12
2018-01-21T10:54:51.039Z,990.14
2018-01-21T10:55:51.026Z,990.27
2018-01-21T10:56:51.015Z,990.28
2018-01-21T10:57:51.001Z,990.24
2018-01-21T10:58:51.000Z,990.32
2018-01-21T10:59:50.980Z,990.21
2018-01-21T11:00:50.971Z,990.26
2018-01-21T11:01:50.963Z,990.22
2018-01-21T11:02:50.949Z,990.25
2018-01-21T11:03:50.963Z,990.23
2018-01-21T11:04:50.978Z,990.28
2018-01-21T11:05:50.963Z,990.35
2018-01-21T11:06:50.922Z,990.34
2018-01-21T11:07:50.903Z,990.34
2018-01-21T11:08:50.898Z,990.39
2018-01-21T11:09:50.887Z,990.44
2018-01-21T11:10:50.879Z,990.45
2018-01-21T11:11:50.876Z,990.51
2018-01-21T11:12:50.865Z,990.5
2018-01-21T11:13:50.853Z,990.48
2018-01-21T11:14:50.845Z,990.52
2018-01-21T11:15:50.856Z,990.49
2018-01-21T11:16:50.827Z,990.49
2018-01-21T11:17:50.820Z,990.48
2018-01-21T11:18:50.810Z,990.49
2018-01-21T11:19:50.802Z,990.54
2018-01-21T11:20:50.795Z,990.56
2018-01-21T11:21:50.786Z,990.51
2018-01-21T11:22:50.778Z,990.52
2018-01-21T11:23:50.770Z,990.51
2018-01-21T11:24:50.760Z,990.57
2018-01-21T11:25:50.753Z,990.57
2018-01-21T11:26:50.746Z,990.53
2018-01-21T11:27:50.743Z,990.59
2018-01-21T11:28:50.730Z,990.66
2018-01-21T11:29:50.720Z,990.68
2018-01-21T11:30:50.714Z,990.76
2018-01-21T11:31:50.734Z,990.71
2018-01-21T11:32:50.698Z,990.82
2018-01-21T11:33:50.690Z,990.81
2018-01-21T11:34:50.685Z,990.8
2018-01-21T11:35:50.674Z,990.84
2018-01-21T11:36:50.665Z,990.84
2018-01-21T11:37:50.660Z,990.82
2018-01-21T11:38:50.652Z,990.85
2018-01-21T11:39:50.642Z,990.81
2018-01-21T11:40:50.635Z,990.87
2018-01-21T11:41:50.656Z,990.84
2018-01-21T11:42:50.619Z,990.86
2018-01-21T11:43:50.614Z,990.89
2018-01-21T11:44:50.609Z,990.89
2018-01-21T11:45:50.597Z,990.85
2018-01-21T11:46:50.587Z,990.83
2018-01-21T11:47:50.582Z,990.87
2018-01-21T11:48:50.575Z,990.91
2018-01-21T11:49:50.569Z,990.92
2018-01-21T11:50:50.559Z,990.95
2018-01-21T11:51:50.551Z,990.9
2018-01-21T11:52:50.551Z,990.92
2018-01-21T11:53:50.535Z,990.95
2018-01-21T11:54:50.527Z,990.94
2018-01-21T11:55:50.520Z,990.94
2018-01-21T11:56:50.517Z,990.93
2018-01-21T11:57:50.504Z,990.96
2018-01-21T11:58:50.497Z,990.96
2018-01-21T11:59:50.490Z,990.97
2018-01-21T12:00:50.490Z,991.02
2018-01-21T12:01:50.474Z,991.06
2018-01-21T12:02:50.466Z,991.08
2018-01-21T12:03:50.461Z,991.12
2018-01-21T12:04:50.452Z,991.15
2018-01-21T12:05:50.443Z,991.18
2018-01-21T12:06:50.439Z,991.15
2018-01-21T12:07:50.428Z,991.17
2018-01-21T12:08:50.426Z,991.1
2018-01-21T12:09:50.455Z,991.13
2018-01-21T12:10:50.454Z,991.09
2018-01-21T12:11:50.421Z,991.15
2018-01-21T12:12:50.488Z,991.13
2018-01-21T12:13:50.560Z,991.13
2018-01-21T12:14:50.612Z,991.09
2018-01-21T12:15:50.430Z,991.06
2018-01-21T12:16:50.512Z,991.08
2018-01-21T12:17:50.422Z,991.07
2018-01-21T12:18:50.392Z,991.18
2018-01-21T12:19:50.393Z,991.15
2018-01-21T12:20:50.333Z,991.11
2018-01-21T12:21:50.326Z,991.11
2018-01-21T12:22:50.352Z,991.14
2018-01-21T12:23:53.877Z,991.13
2018-01-21T12:24:50.330Z,991.19
2018-01-21T12:25:50.314Z,991.19
2018-01-21T12:26:50.300Z,991.17
2018-01-21T12:27:50.309Z,991.14
2018-01-21T12:28:50.270Z,991.14
2018-01-21T12:29:50.270Z,991.18
2018-01-21T12:30:50.257Z,991.18
2018-01-21T12:31:50.259Z,991.13
2018-01-21T12:32:50.253Z,991.08
2018-01-21T12:33:50.245Z,991.08
2018-01-21T12:34:50.227Z,991.09
2018-01-21T12:35:50.225Z,991.09
2018-01-21T12:36:50.237Z,991.11
2018-01-21T12:37:50.202Z,991.08
2018-01-21T12:38:50.196Z,991.11
2018-01-21T12:39:50.188Z,991.07
2018-01-21T12:40:50.180Z,991.11
2018-01-21T12:41:50.184Z,991.08
2018-01-21T12:42:50.217Z,991.08
2018-01-21T12:43:50.158Z,991.04
2018-01-21T12:44:50.150Z,991.07
2018-01-21T12:45:50.142Z,991.1
2018-01-21T12:46:50.134Z,991.07
2018-01-21T12:47:50.128Z,991.13
2018-01-21T12:48:50.126Z,991.14
2018-01-21T12:49:50.113Z,991.13
2018-01-21T12:50:50.106Z,991.14
2018-01-21T12:51:50.096Z,991.09
2018-01-21T12:52:50.096Z,991.12
2018-01-21T12:53:50.080Z,991.18
2018-01-21T12:54:50.076Z,991.17
2018-01-21T12:55:50.086Z,991.14
2018-01-21T12:56:50.076Z,991.17
2018-01-21T12:57:50.052Z,991.22
2018-01-21T12:58:50.043Z,991.26